• Join FlightAware (Why Join?)
  • Login
  • US Flag 
06:24AM EDT


 

Airport Tracker/Info


-or-


 

Live Flight TrackerFlight Track Log ✈ EGF2805 ✈ 05-May-2012 ✈ KROW - KDFW

Flight Track Log - Related Links

Times and Time Zones

All times are in EDT time to prevent confusion due to time zone crossing. See the EGF2805 flight status page for this flight to view local times or setup timezone preferences in your user account.

Time Position Orientation Groundspeed Altitude Reporting Facility
EDT Latitude Longitude Course Direction KTS MPH feet Rate Location/Type
01:02PM 33.2545 -104.3603 256° West  Level FlightAware Approximate
01:03PM 33.2350 -104.2417 271° West  Level FlightAware Approximate
01:04PM 33.2364 -104.4442 103° East 238 274 8,200  Level Albuquerque Center
01:08PM 33.1639 -104.0692 104° East 313 360 16,400 1,860 Climbing Albuquerque Center
01:09PM 33.1419 -103.9606 103° East 336 387 18,000 1,560 Climbing Albuquerque Center
01:10PM 33.1183 -103.8364 102° East 355 409 19,700 1,500 Climbing Albuquerque Center
01:10PM 33.1064 -103.7689 104° East 352 405 20,600 1,440 Climbing Fort Worth Center
01:11PM 33.0794 -103.6406 104° East 364 419 22,200 1,560 Climbing Fort Worth Center
01:12PM 33.0542 -103.5175 105° East 374 430 23,800 1,560 Climbing Fort Worth Center
01:13PM 33.0267 -103.3917 103° East 379 436 25,400 1,560 Climbing Fort Worth Center
01:14PM 33.0033 -103.2711 104° East 379 436 27,000 1,500 Climbing Fort Worth Center
01:15PM 32.9778 -103.1458 103° East 379 436 28,400 960 Climbing Fort Worth Center
01:16PM 32.9522 -103.0178 104° East 391 450 29,000 300 Climbing Fort Worth Center
01:17PM 32.9247 -102.8875 104° East 397 457 29,000  Level Fort Worth Center
01:18PM 32.8950 -102.7497 104° East 417 480 29,000  Level Fort Worth Center
01:19PM 32.8692 -102.6219 104° East 429 494 29,000  Level Fort Worth Center
01:20PM 32.8394 -102.4794 105° East 435 501 29,000  Level Fort Worth Center
01:21PM 32.8075 -102.3367 105° East 440 506 29,000  Level Fort Worth Center
01:22PM 32.7719 -102.1817 104° East 440 506 29,000  Level Fort Worth Center
01:23PM 32.7419 -102.0367 105° East 440 506 29,000  Level Fort Worth Center
01:24PM 32.7094 -101.8969 105° East 440 506 29,000  Level Fort Worth Center
01:25PM 32.6789 -101.7572 105° East 440 506 29,000  Level Fort Worth Center
01:26PM 32.6481 -101.6175 105° East 442 509 29,000  Level Fort Worth Center
01:27PM 32.6172 -101.4781 105° East 442 509 29,000  Level Fort Worth Center
01:28PM 32.5861 -101.3408 104° East 437 503 29,000  Level Fort Worth Center
01:29PM 32.5569 -101.2042 105° East 437 503 29,000  Level Fort Worth Center
01:30PM 32.5253 -101.0672 105° East 437 503 29,000  Level Fort Worth Center
01:31PM 32.4939 -100.9281 106° East 437 503 29,000  Level Fort Worth Center
01:32PM 32.4603 -100.7889 105° East 437 503 29,000  Level Fort Worth Center
01:33PM 32.4303 -100.6525 106° East 437 503 29,000  Level Fort Worth Center
01:34PM 32.3961 -100.5158 105° East 437 503 29,000  Level Fort Worth Center
01:35PM 32.3642 -100.3747 105° East 437 503 29,000  Level Fort Worth Center
01:36PM 32.3319 -100.2358 105° East 437 503 29,000  Level Fort Worth Center
01:37PM 32.2994 -100.0972 105° East 437 503 29,000  Level Fort Worth Center
01:38PM 32.2669 -99.9564 106° East 437 503 29,000  Level Fort Worth Center
01:39PM 32.2361 -99.8278 93° East 442 509 29,000  Level Fort Worth Center
01:40PM 32.2303 -99.6825 92° East 436 502 29,000  Level Fort Worth Center
01:41PM 32.2267 -99.5378 93° East 436 502 29,000  Level Fort Worth Center
01:42PM 32.2208 -99.3878 93° East 442 509 29,000 -180 Level Fort Worth Center
01:43PM 32.2147 -99.2403 93° East 442 509 28,700 -660 Descending Fort Worth Center
01:44PM 32.2083 -99.0928 103° East 447 514 27,700 -1,020 Descending Fort Worth Center
01:45PM 32.1808 -98.9525 135° Southeast 440 506 26,700 -1,020 Descending Fort Worth Center
01:46PM 32.0964 -98.8528 105° East 414 476 25,700 -1,020 Descending Fort Worth Center
01:47PM 32.0667 -98.7225 84° East 409 471 24,700 -1,020 Descending Fort Worth Center
01:48PM 32.0783 -98.5878 81° East 397 457 23,700 -1,080 Descending Fort Worth Center
01:49PM 32.0964 -98.4508 83° East 403 464 22,600 -1,080 Descending Fort Worth Center
01:50PM 32.1097 -98.3183 82° East 409 471 21,600 -1,020 Descending Fort Worth Center
01:51PM 32.1253 -98.1886 63° Northeast 401 461 20,600 -1,560 Descending Fort Worth Center
01:52PM 32.1783 -98.0639 65° Northeast 388 447 18,500 -2,220 Descending Fort Worth Center
01:53PM 32.2183 -97.9611 63° Northeast 377 434 16,200 -2,580 Descending Fort Worth Center
01:54PM 32.2672 -97.8472 66° East 368 423 13,400 -2,580 Descending FAA TRACON SMA TRACON (SMA)
01:55PM 32.2922 -97.7822 64° Northeast 351 404 12,000 -1,740 Descending FAA TRACON SMA TRACON (SMA)
01:56PM 32.3200 -97.7156 63° Northeast 327 376 11,100 -780 Descending FAA TRACON SMA TRACON (SMA)
01:56PM 32.3469 -97.6533 44° Northeast 305 351 11,000 -120 Descending FAA TRACON SMA TRACON (SMA)
01:57PM 32.3839 -97.6106 45° Northeast 302 348 11,000  Level FAA TRACON SMA TRACON (SMA)
01:58PM 32.4256 -97.5606 45° Northeast 308 354 11,000  Level FAA TRACON SMA TRACON (SMA)
01:58PM 32.4681 -97.5106 45° Northeast 311 358 11,000  Level FAA TRACON SMA TRACON (SMA)
01:59PM 32.5058 -97.4650 46° Northeast 314 361 11,000  Level FAA TRACON SMA TRACON (SMA)
02:00PM 32.5486 -97.4131 46° Northeast 318 366 11,000  Level FAA TRACON SMA TRACON (SMA)
02:00PM 32.5911 -97.3611 46° Northeast 316 364 11,000  Level FAA TRACON SMA TRACON (SMA)
02:01PM 32.6283 -97.3158 45° Northeast 310 357 11,000  Level FAA TRACON SMA TRACON (SMA)
02:02PM 32.6703 -97.2653 46° Northeast 309 356 11,000 -120 Level FAA TRACON SMA TRACON (SMA)
02:02PM 32.7106 -97.2156 43° Northeast 302 348 10,900  Descending FAA TRACON SMA TRACON (SMA)
02:03PM 32.7450 -97.1778 North 272 313 11,000 -240 Climbing FAA TRACON SMA TRACON (SMA)
02:04PM 32.7956 -97.1697 359° North 266 306 10,600 -1,080 Descending FAA TRACON SMA TRACON (SMA)
02:04PM 32.8469 -97.1706 360° North 267 307 9,600 -1,620 Descending FAA TRACON SMA TRACON (SMA)
02:05PM 32.8925 -97.1706 North 267 307 8,500 -1,800 Descending FAA TRACON SMA TRACON (SMA)
02:06PM 32.9433 -97.1694 North 262 302 7,200 -1,800 Descending FAA TRACON SMA TRACON (SMA)
02:06PM 32.9917 -97.1667 North 249 287 6,100 -1,200 Descending FAA TRACON SMA TRACON (SMA)
02:07PM 33.0328 -97.1653 17° North 237 273 5,600 -1,380 Descending FAA TRACON SMA TRACON (SMA)
02:08PM 33.0769 -97.1494 61° Northeast 240 276 4,300 -1,740 Descending FAA TRACON SMA TRACON (SMA)
02:08PM 33.0953 -97.1097 121° Southeast 247 284 3,300 -1,020 Descending FAA TRACON SMA TRACON (SMA)
02:09PM 33.0767 -97.0728 161° South 197 227 3,000 -240 Descending FAA TRACON SMA TRACON (SMA)
02:10PM 33.0456 -97.0603 161° South 169 194 3,000  Level FAA TRACON SMA TRACON (SMA)